Terminal Aerodrome Forecast
Issued by NWS Binghamton, NY

Current Version | Previous Version | Text Only | Print | Product List | Glossary On
Versions: 1 2 3 4 5 6 7 8 9 10 11 12 13 14 15 16
098
FTUS41 KBGM 271132
TAFSYR
TAF
KSYR 271132Z 2712/2812 24005KT P6SM SCT045 OVC080
      TEMPO 2712/2715 -SHRA OVC045
     FM271500 26010KT P6SM BKN060
      TEMPO 2717/2721 -SHRA OVC040
     FM280200 24005KT P6SM FEW080=

USA.gov is the U.S. government's official web portal to all federal, state and local government web resources and services.